x

Buoy M01 - Jordan Basin (44037) Wave Buoy

10:04am - Sat 26th Jul 2014 All times are EDT. -4 hours from GMT.

  • Sig Wave height 3.0ft
  • Peak Period 8s
  • Wind
    11mph
  • Sea Temp 58°f
  • Air Temp 61°f
  • Sea Pressure 1013.5mb
  • Buoy M01 - Jordan Basin
  • Buoy M01 - Jordan Basin

More Historic Weather Station data

Upgrade to MSW Pro to gain access to the past 30 days of data for over 8000 Wavebouys and Weather Stations around the globe.

Join Pro

Comparision Forecast

View Surf forecast
   
Sat 07/26 10:04am 3ft 8s 11
mph
1013.5mb 58f 61f
9:04am  -   -  9
mph
1013.6mb - 60f
8:04am 2.5ft 8s 9 11 mph 1013.8mb 58f 60f
7:04am 2.5ft 8s 9 11 mph 1013.5mb 57f 61f
6:04am 3ft 8s 9
mph
1013.2mb 57f 60f
5:04am 3ft 8s 7 9 mph 1013mb 58f 60f
4:04am 2.5ft 8s 11
mph
1012.8mb 58f 60f
3:04am 3ft 8s 11 13 mph 1012.6mb 58f 61f
2:04am 3ft 11s 9
mph
1012.4mb 58f 60f
1:04am 2.5ft 8s 11 13 mph 1012.6mb 58f 61f
12:04am 3.5ft 11s 13 16 mph 1012.6mb 58f 61f
Fri 07/25 11:04pm 3ft 11s 13 16 mph 1012.3mb 59f 62f
10:04pm  -   -  13 16 mph 1012.3mb - 62f
9:04pm 3.5ft 11s 13 16 mph 1012.1mb 59f 61f
8:04pm 3ft 11s 11 13 mph 1011.6mb 59f 62f
7:04pm  -   -  13 16 mph 1011.7mb 59f 62f
6:04pm 3.5ft 11s 11 13 mph 1011.4mb 59f 61f
5:04pm 3ft 8s 11
mph
1011.5mb 60f 62f
4:04pm 3ft 8s 9 11 mph 1011.5mb 60f 61f
3:04pm 2.5ft 8s 9 11 mph 1011.5mb 59f 60f
2:04pm 2.5ft 8s 7 9 mph 1011.5mb 59f 60f
1:04pm 2.5ft 8s 9 11 mph 1011.9mb 59f 60f
12:04pm 2.5ft 8s 7
mph
1011.9mb 59f 59f
11:04am 2.5ft 11s 7
mph
1011.8mb 58f 59f
10:04am 2.5ft 8s 9 11 mph 1011.8mb 57f 59f
9:04am 2ft 6s 9 11 mph 1011.8mb 57f 59f
8:04am 2ft 8s 9 11 mph 1011.6mb 57f 59f
7:04am 2.5ft 8s 9 11 mph 1011.5mb 57f 59f
6:04am 2.5ft 8s 9 11 mph 1011.1mb 57f 59f
5:04am 3ft 11s 9
mph
1010.7mb 57f 59f
4:04am 2.5ft 8s 9
mph
1010.4mb 57f 59f
3:04am 2ft 11s 11 13 mph 1010.2mb 57f 59f
2:04am 2ft 8s 7 9 mph 1010.2mb 58f 59f
1:04am 2.5ft 11s 9 11 mph 1010.2mb 58f 59f
12:04am 2ft 8s 11 13 mph 1010.2mb 58f 59f
Thu 07/24 11:04pm 2.5ft 8s 9 11 mph 1009.6mb 58f 58f
10:04pm 2ft 8s 4 7 mph 1009.4mb 58f 58f
9:04pm 2ft 8s 4
mph
1009.4mb 57f 58f
8:04pm 1.6ft 8s 2
mph
1008.6mb 57f 59f
7:04pm 1.3ft 4s 4
mph
1008.6mb 57f 59f
6:04pm 2ft 4s 7 9 mph 1008.6mb 58f 60f
5:04pm 2.5ft 4s 11 13 mph 1008.5mb 57f 59f
4:04pm 2.5ft 4s 11
mph
1008.5mb 57f 58f
3:04pm 2.5ft 4s 13 16 mph 1008.5mb 57f 58f
2:04pm 2.5ft 4s 16 20 mph 1008.7mb 57f 58f
1:04pm 3.5ft 5s 13 18 mph 1008.6mb 57f 58f
12:04pm 2.5ft 5s 16 18 mph 1007.7mb 57f 59f
11:04am 3ft 5s 16 18 mph 1007.5mb 58f 60f
10:04am 2.5ft 5s 11
mph
1007.2mb 58f 60f
9:04am 3ft 5s 9
mph
1006.8mb 58f 59f
8:04am 3ft 6s 4 7 mph 1006.7mb 57f 60f
7:04am 4ft 6s 7
mph
1006.7mb 57f 59f
6:04am 3.5ft 6s 7 9 mph 1006.7mb 57f 59f
5:04am 4ft 6s 9 11 mph 1006.6mb 57f 59f
4:04am 4.5ft 6s 11
mph
1005.7mb 57f 59f
3:04am 4.5ft 6s 9 11 mph 1005.5mb 57f 60f
2:04am 4.5ft 6s 9
mph
1005.9mb 57f 60f
1:04am 5.5ft 6s 9 11 mph 1006.7mb 57f 60f
12:04am 5ft 6s 11 13 mph 1007.2mb 57f 62f
Wed 07/23 11:04pm 4.5ft 6s 13 16 mph 1007.8mb 57f 62f
10:04pm 4.5ft 8s 13 20 mph 1008.2mb 57f 63f
9:04pm 5.5ft 6s 16 18 mph 1007.5mb 57f 62f
8:04pm 6ft 6s 16 18 mph 1007.4mb 57f 62f
7:04pm  -   -  18 20 mph 1007mb - 62f
6:04pm 4.5ft 5s 18 22 mph 1006.9mb 58f 63f
5:04pm 4ft 5s 18 20 mph 1007.5mb 58f 63f
4:04pm 4ft 5s 20 22 mph 1007.5mb 58f 63f
3:04pm 4ft 5s 16 20 mph 1008.3mb 58f 62f
2:04pm 3.5ft 5s 16
mph
1009.1mb 58f 62f
1:04pm 4ft 5s 13 16 mph 1009.7mb 57f 61f
12:04pm 3ft 5s 16
mph
1010mb 57f 62f
11:04am 4ft 8s 16 18 mph 1010.6mb 57f 62f
10:04am 3.5ft 8s 13 16 mph 1010.8mb 57f 61f
9:04am 3ft 8s 16 18 mph 1011mb 57f 61f
8:04am 3ft 8s 13 16 mph 1011.5mb 57f 61f
5:04am 2.5ft 5s 13 16 mph 1012.1mb 56f 61f
4:04am 3.5ft 6s 16
mph
1011.9mb 57f 61f
3:04am 3.5ft 8s 13 16 mph 1012.7mb 57f 61f
2:04am 4.5ft 11s 13 16 mph 1013.2mb 57f 61f
1:04am 3ft 8s 13
mph
1013.8mb 57f 61f
12:04am 3.5ft 8s 13
mph
1014.5mb 58f 61f
Tue 07/22 11:04pm 3ft 8s 13 16 mph 1015mb 58f 61f
10:04pm  -   -  13 16 mph 1015.3mb - 61f
9:04pm 2.5ft 6s 13
mph
1015.8mb 58f 62f
8:04pm 2.5ft 8s 11 13 mph 1015.7mb 58f 61f
7:04pm 2.5ft 8s 11 13 mph 1015.7mb 58f 61f
6:04pm 2.5ft 8s 11 13 mph 1016.2mb 58f 61f
5:04pm 2.5ft 8s 11
mph
1016.8mb 58f 61f
4:04pm 2.5ft 8s 11
mph
1017.6mb 58f 60f